createdAt,value
2018-02-27T00:00:31.081Z,1009.4
2018-02-27T00:01:41.119Z,1009.38
2018-02-27T00:02:51.124Z,1009.38
2018-02-27T00:04:00.872Z,1009.41
2018-02-27T00:05:10.861Z,1009.35
2018-02-27T00:06:20.317Z,1009.4
2018-02-27T00:07:30.036Z,1009.44
2018-02-27T00:08:40.024Z,1009.4
2018-02-27T00:09:50.010Z,1009.45
2018-02-27T00:10:59.998Z,1009.4
2018-02-27T00:12:09.725Z,1009.39
2018-02-27T00:13:19.814Z,1009.42
2018-02-27T00:14:29.805Z,1009.44
2018-02-27T00:15:39.535Z,1009.44
2018-02-27T00:16:49.555Z,1009.47
2018-02-27T00:17:59.281Z,1009.34
2018-02-27T00:19:09.269Z,1009.47
2018-02-27T00:20:19.266Z,1009.48
2018-02-27T00:21:29.254Z,1009.47
2018-02-27T00:22:38.982Z,1009.45
2018-02-27T00:23:48.977Z,1009.46
2018-02-27T00:24:58.698Z,1009.43
2018-02-27T00:26:08.157Z,1009.42
2018-02-27T00:27:18.143Z,1009.43
2018-02-27T00:28:28.135Z,1009.46
2018-02-27T00:29:37.850Z,1009.45
2018-02-27T00:30:47.573Z,1009.44
2018-02-27T00:31:57.296Z,1009.46
2018-02-27T00:33:07.010Z,1009.43
2018-02-27T00:34:17.006Z,1009.4
2018-02-27T00:35:26.458Z,1009.43
2018-02-27T00:36:36.439Z,1009.36
2018-02-27T00:37:46.429Z,1009.39
2018-02-27T00:38:56.158Z,1009.43
2018-02-27T00:40:06.198Z,1009.41
2018-02-27T00:41:15.916Z,1009.49
2018-02-27T00:42:25.365Z,1009.43
2018-02-27T00:43:35.084Z,1009.45
2018-02-27T00:44:45.082Z,1009.43
2018-02-27T00:45:54.801Z,1009.46
2018-02-27T00:47:04.791Z,1009.51
2018-02-27T00:48:14.513Z,1009.53
2018-02-27T00:49:24.497Z,1009.59
2018-02-27T00:50:33.953Z,1009.51
2018-02-27T00:51:43.950Z,1009.52
2018-02-27T00:52:53.939Z,1009.54
2018-02-27T00:54:03.653Z,1009.51
2018-02-27T00:55:13.377Z,1009.47
2018-02-27T00:56:23.363Z,1009.5
2018-02-27T00:57:33.355Z,1009.49
2018-02-27T00:58:43.336Z,1009.47
2018-02-27T00:59:53.320Z,1009.45
2018-02-27T01:01:03.324Z,1009.46
2018-02-27T01:02:13.052Z,1009.47
2018-02-27T01:03:23.045Z,1009.53
2018-02-27T01:04:33.028Z,1009.46
2018-02-27T01:05:43.020Z,1009.52
2018-02-27T01:06:52.469Z,1009.53
2018-02-27T01:08:02.453Z,1009.5
2018-02-27T01:09:12.181Z,1009.46
2018-02-27T01:10:22.168Z,1009.49
2018-02-27T01:11:32.149Z,1009.52
2018-02-27T01:12:42.130Z,1009.48
2018-02-27T01:13:51.848Z,1009.56
2018-02-27T01:15:01.834Z,1009.58
2018-02-27T01:16:11.817Z,1009.57
2018-02-27T01:17:21.812Z,1009.61
2018-02-27T01:18:31.534Z,1009.62
2018-02-27T01:19:41.261Z,1009.63
2018-02-27T01:20:51.248Z,1009.59
2018-02-27T01:22:00.703Z,1009.52
2018-02-27T01:23:10.419Z,1009.52
2018-02-27T01:24:20.400Z,1009.6
2018-02-27T01:25:30.383Z,1009.55
2018-02-27T01:26:39.840Z,1009.58
2018-02-27T01:27:49.821Z,1009.52
2018-02-27T01:28:59.816Z,1009.54
2018-02-27T01:30:09.534Z,1009.49
2018-02-27T01:31:19.253Z,1009.55
2018-02-27T01:32:28.705Z,1009.49
2018-02-27T01:33:38.687Z,1009.54
2018-02-27T01:34:48.680Z,1009.62
2018-02-27T01:35:58.712Z,1009.64
2018-02-27T01:37:08.159Z,1009.68
2018-02-27T01:38:17.889Z,1009.72
2018-02-27T01:39:27.877Z,1009.69
2018-02-27T01:40:37.858Z,1009.67
2018-02-27T01:41:47.839Z,1009.65
2018-02-27T01:42:57.820Z,1009.53
2018-02-27T01:44:07.809Z,1009.59
2018-02-27T01:45:17.786Z,1009.58
2018-02-27T01:46:27.237Z,1009.5
2018-02-27T01:47:36.954Z,1009.54
2018-02-27T01:48:46.945Z,1009.48
2018-02-27T01:49:56.397Z,1009.6
2018-02-27T01:51:06.120Z,1009.55
2018-02-27T01:52:16.117Z,1009.58
2018-02-27T01:53:25.833Z,1009.61
2018-02-27T01:54:35.551Z,1009.59
2018-02-27T01:55:45.001Z,1009.59
2018-02-27T01:56:54.987Z,1009.58
2018-02-27T01:58:04.970Z,1009.58
2018-02-27T01:59:14.954Z,1009.58
2018-02-27T02:00:24.945Z,1009.63
2018-02-27T02:01:34.932Z,1009.64
2018-02-27T02:02:44.393Z,1009.64
2018-02-27T02:03:54.375Z,1009.65
2018-02-27T02:05:04.100Z,1009.66
2018-02-27T02:06:13.826Z,1009.75
2018-02-27T02:07:23.808Z,1009.64
2018-02-27T02:08:33.265Z,1009.72
2018-02-27T02:09:42.987Z,1009.72
2018-02-27T02:10:52.707Z,1009.77
2018-02-27T02:12:02.697Z,1009.75
2018-02-27T02:13:12.686Z,1009.78
2018-02-27T02:14:22.668Z,1009.7
2018-02-27T02:15:32.659Z,1009.71
2018-02-27T02:16:42.375Z,1009.82
2018-02-27T02:17:52.094Z,1009.78
2018-02-27T02:19:02.129Z,1009.75
2018-02-27T02:20:12.114Z,1009.8
2018-02-27T02:21:22.096Z,1009.8
2018-02-27T02:22:32.099Z,1009.71
2018-02-27T02:23:41.817Z,1009.75
2018-02-27T02:24:51.536Z,1009.76
2018-02-27T02:26:01.260Z,1009.89
2018-02-27T02:27:10.982Z,1009.92
2018-02-27T02:28:20.972Z,1009.83
2018-02-27T02:29:30.698Z,1009.9
2018-02-27T02:30:40.414Z,1009.87
2018-02-27T02:31:50.401Z,1009.84
2018-02-27T02:33:00.127Z,1009.83
2018-02-27T02:34:09.591Z,1009.82
2018-02-27T02:35:19.044Z,1009.82
2018-02-27T02:36:29.035Z,1009.75
2018-02-27T02:37:38.774Z,1009.82
2018-02-27T02:38:48.504Z,1009.7
2018-02-27T02:39:58.494Z,1009.82
2018-02-27T02:41:07.954Z,1009.71
2018-02-27T02:42:17.668Z,1009.72
2018-02-27T02:43:27.675Z,1009.73
2018-02-27T02:44:37.399Z,1009.73
2018-02-27T02:45:47.388Z,1009.73
2018-02-27T02:46:57.374Z,1009.7
2018-02-27T02:48:07.358Z,1009.65
2018-02-27T02:49:17.086Z,1009.64
2018-02-27T02:50:26.903Z,1009.68
2018-02-27T02:51:36.625Z,1009.52
2018-02-27T02:52:46.623Z,1009.54
2018-02-27T02:53:56.605Z,1009.59
2018-02-27T02:55:06.049Z,1009.62
2018-02-27T02:56:16.027Z,1009.62
2018-02-27T02:57:26.007Z,1009.57
2018-02-27T02:58:35.994Z,1009.63
2018-02-27T02:59:45.978Z,1009.58
2018-02-27T03:00:55.691Z,1009.53
2018-02-27T03:02:05.400Z,1009.47
2018-02-27T03:03:15.384Z,1009.52
2018-02-27T03:04:25.106Z,1009.43
2018-02-27T03:05:35.102Z,1009.39
2018-02-27T03:06:45.089Z,1009.47
2018-02-27T03:07:54.807Z,1009.5
2018-02-27T03:09:04.796Z,1009.45
2018-02-27T03:10:14.785Z,1009.46
2018-02-27T03:11:24.244Z,1009.43
2018-02-27T03:12:33.968Z,1009.45
2018-02-27T03:13:43.748Z,1009.38
2018-02-27T03:14:53.471Z,1009.39
2018-02-27T03:16:03.455Z,1009.42
2018-02-27T03:17:13.175Z,1009.4
2018-02-27T03:18:22.902Z,1009.48
2018-02-27T03:19:32.622Z,1009.5
2018-02-27T03:20:42.622Z,1009.48
2018-02-27T03:21:52.613Z,1009.44
2018-02-27T03:23:02.603Z,1009.44
2018-02-27T03:24:12.368Z,1009.41
2018-02-27T03:25:22.358Z,1009.45
2018-02-27T03:26:32.343Z,1009.34
2018-02-27T03:27:42.329Z,1009.46
2018-02-27T03:28:52.314Z,1009.48
2018-02-27T03:30:01.504Z,1009.5
2018-02-27T03:31:10.974Z,1009.48
2018-02-27T03:32:20.971Z,1009.42
2018-02-27T03:33:30.959Z,1009.44
2018-02-27T03:34:40.939Z,1009.46
2018-02-27T03:35:50.919Z,1009.43
2018-02-27T03:37:00.745Z,1009.46
2018-02-27T03:38:10.466Z,1009.44
2018-02-27T03:39:20.455Z,1009.48
2018-02-27T03:40:30.456Z,1009.46
2018-02-27T03:41:40.449Z,1009.51
2018-02-27T03:42:50.167Z,1009.49
2018-02-27T03:44:00.155Z,1009.49
2018-02-27T03:45:10.134Z,1009.53
2018-02-27T03:46:20.112Z,1009.53
2018-02-27T03:47:30.100Z,1009.45
2018-02-27T03:48:40.083Z,1009.43
2018-02-27T03:49:50.069Z,1009.52
2018-02-27T03:51:00.055Z,1009.45
2018-02-27T03:52:09.503Z,1009.5
2018-02-27T03:53:19.481Z,1009.42
2018-02-27T03:54:29.476Z,1009.47
2018-02-27T03:55:39.462Z,1009.55
2018-02-27T03:56:49.449Z,1009.58
2018-02-27T03:57:59.435Z,1009.6
2018-02-27T03:59:09.416Z,1009.49
2018-02-27T04:04:25.796Z,1009.54
2018-02-27T04:05:35.790Z,1009.54
2018-02-27T04:06:45.511Z,1009.54
2018-02-27T04:07:55.227Z,1009.58
2018-02-27T04:09:04.675Z,1009.6
2018-02-27T04:10:14.656Z,1009.6
2018-02-27T04:11:24.370Z,1009.62
2018-02-27T04:12:34.351Z,1009.64
2018-02-27T04:13:44.337Z,1009.63
2018-02-27T04:14:54.160Z,1009.65
2018-02-27T04:16:03.880Z,1009.63
2018-02-27T04:17:13.600Z,1009.61
2018-02-27T04:18:23.316Z,1009.67
2018-02-27T04:19:33.298Z,1009.6
2018-02-27T04:20:43.287Z,1009.64
2018-02-27T04:21:53.278Z,1009.64
2018-02-27T04:23:03.262Z,1009.64
2018-02-27T04:24:12.714Z,1009.62
2018-02-27T04:25:22.439Z,1009.67
2018-02-27T04:26:32.427Z,1009.63
2018-02-27T04:27:42.408Z,1009.7
2018-02-27T04:28:52.118Z,1009.7
2018-02-27T04:30:01.882Z,1009.66
2018-02-27T04:31:11.602Z,1009.73
2018-02-27T04:32:21.324Z,1009.78
2018-02-27T04:33:31.046Z,1009.73
2018-02-27T04:34:41.032Z,1009.76
2018-02-27T04:35:50.757Z,1009.73
2018-02-27T04:37:00.746Z,1009.77
2018-02-27T04:38:10.195Z,1009.73
2018-02-27T04:39:20.187Z,1009.82
2018-02-27T04:40:29.903Z,1009.76
2018-02-27T04:41:39.897Z,1009.82
2018-02-27T04:42:49.619Z,1009.79
2018-02-27T04:43:59.332Z,1009.81
2018-02-27T04:45:09.060Z,1009.82
2018-02-27T04:46:18.785Z,1009.75
2018-02-27T04:47:28.769Z,1009.64
2018-02-27T04:48:38.548Z,1009.7
2018-02-27T04:49:48.638Z,1009.69
2018-02-27T04:50:58.620Z,1009.69
2018-02-27T04:52:08.605Z,1009.64
2018-02-27T04:53:18.051Z,1009.61
2018-02-27T04:54:27.774Z,1009.62
2018-02-27T04:55:37.497Z,1009.67
2018-02-27T04:56:47.490Z,1009.62
2018-02-27T04:57:57.478Z,1009.66
2018-02-27T04:59:07.463Z,1009.7
2018-02-27T05:00:17.448Z,1009.63
2018-02-27T05:01:27.168Z,1009.67
2018-02-27T05:02:36.350Z,1009.58
2018-02-27T05:03:46.070Z,1009.77
2018-02-27T05:04:56.063Z,1009.78
2018-02-27T05:06:06.050Z,1009.74
2018-02-27T05:07:16.048Z,1009.78
2018-02-27T05:08:25.508Z,1009.79
2018-02-27T05:09:35.539Z,1009.71
2018-02-27T05:10:45.570Z,1009.71
2018-02-27T05:11:55.287Z,1009.7
2018-02-27T05:13:05.362Z,1009.74
2018-02-27T05:14:15.349Z,1009.78
2018-02-27T05:15:25.071Z,1009.76
2018-02-27T05:16:35.061Z,1009.8
2018-02-27T05:17:44.779Z,1009.77
2018-02-27T05:18:54.229Z,1009.76
2018-02-27T05:20:03.941Z,1009.71
2018-02-27T05:21:13.661Z,1009.7
2018-02-27T05:22:23.650Z,1009.66
2018-02-27T05:23:33.641Z,1009.65
2018-02-27T05:24:43.660Z,1009.64
2018-02-27T05:25:53.406Z,1009.6
2018-02-27T05:27:03.384Z,1009.59
2018-02-27T05:28:13.101Z,1009.57
2018-02-27T05:29:22.814Z,1009.59
2018-02-27T05:30:32.568Z,1009.64
2018-02-27T05:31:42.685Z,1009.59
2018-02-27T05:32:52.668Z,1009.62
2018-02-27T05:34:02.128Z,1009.68
2018-02-27T05:35:12.113Z,1009.7
2018-02-27T05:36:22.112Z,1009.71
2018-02-27T05:37:31.556Z,1009.67
2018-02-27T05:38:41.275Z,1009.71
2018-02-27T05:39:50.729Z,1009.74
2018-02-27T05:41:00.723Z,1009.73
2018-02-27T05:42:10.707Z,1009.74
2018-02-27T05:43:20.452Z,1009.75
2018-02-27T05:44:30.436Z,1009.76
2018-02-27T05:45:40.414Z,1009.81
2018-02-27T05:46:50.401Z,1009.81
2018-02-27T05:48:00.408Z,1009.87
2018-02-27T05:49:09.860Z,1009.88
2018-02-27T05:50:19.650Z,1009.9
2018-02-27T05:51:29.627Z,1009.92
2018-02-27T05:52:39.342Z,1009.91
2018-02-27T05:53:49.058Z,1009.96
2018-02-27T05:54:58.780Z,1010
2018-02-27T05:56:08.501Z,1010
2018-02-27T05:57:18.483Z,1010.09
2018-02-27T05:58:28.193Z,1010.11
2018-02-27T05:59:38.191Z,1010.16
2018-02-27T06:00:47.960Z,1010.18
2018-02-27T06:01:57.687Z,1010.23
2018-02-27T06:03:07.678Z,1010.26
2018-02-27T06:04:17.670Z,1010.27
2018-02-27T06:05:27.395Z,1010.28
2018-02-27T06:06:36.846Z,1010.26
2018-02-27T06:07:46.588Z,1010.33
2018-02-27T06:08:56.405Z,1010.31
2018-02-27T06:10:06.122Z,1010.21
2018-02-27T06:11:16.109Z,1010.26
2018-02-27T06:12:26.093Z,1010.3
2018-02-27T06:13:35.544Z,1010.27
2018-02-27T06:14:45.530Z,1010.26
2018-02-27T06:15:55.246Z,1010.27
2018-02-27T06:17:05.336Z,1010.24
2018-02-27T06:18:15.317Z,1010.28
2018-02-27T06:19:25.322Z,1010.27
2018-02-27T06:20:35.057Z,1010.35
2018-02-27T06:21:44.510Z,1010.35
2018-02-27T06:22:54.490Z,1010.28
2018-02-27T06:24:04.204Z,1010.31
2018-02-27T06:25:13.919Z,1010.4
2018-02-27T06:26:23.368Z,1010.38
2018-02-27T06:27:33.351Z,1010.33
2018-02-27T06:28:43.078Z,1010.38
2018-02-27T06:29:53.063Z,1010.36
2018-02-27T06:31:02.522Z,1010.26
2018-02-27T06:32:12.512Z,1010.27
2018-02-27T06:33:22.238Z,1010.32
2018-02-27T06:34:32.218Z,1010.41
2018-02-27T06:35:42.201Z,1010.39
2018-02-27T06:36:51.920Z,1010.4
2018-02-27T06:38:01.638Z,1010.4
2018-02-27T06:39:11.614Z,1010.39
2018-02-27T06:40:21.065Z,1010.39
2018-02-27T06:41:30.777Z,1010.4
2018-02-27T06:42:40.756Z,1010.49
2018-02-27T06:43:50.476Z,1010.45
2018-02-27T06:45:00.191Z,1010.47
2018-02-27T06:46:09.908Z,1010.47
2018-02-27T06:47:19.357Z,1010.43
2018-02-27T06:48:28.810Z,1010.52
2018-02-27T06:49:38.800Z,1010.51
2018-02-27T06:50:48.529Z,1010.53
2018-02-27T06:51:58.002Z,1010.56
2018-02-27T06:53:07.991Z,1010.61
2018-02-27T06:54:17.984Z,1010.61
2018-02-27T06:55:27.699Z,1010.56
2018-02-27T06:56:37.414Z,1010.6
2018-02-27T06:57:47.394Z,1010.6
2018-02-27T06:58:56.847Z,1010.59
2018-02-27T07:00:06.574Z,1010.57
2018-02-27T07:01:16.557Z,1010.55
2018-02-27T07:02:26.010Z,1010.66
2018-02-27T07:03:35.825Z,1010.64
2018-02-27T07:04:45.803Z,1010.74
2018-02-27T07:05:55.782Z,1010.65
2018-02-27T07:07:05.501Z,1010.64
2018-02-27T07:08:15.482Z,1010.63
2018-02-27T07:09:24.929Z,1010.77
2018-02-27T07:10:34.645Z,1010.76
2018-02-27T07:11:44.690Z,1010.74
2018-02-27T07:12:54.677Z,1010.74
2018-02-27T07:14:03.861Z,1010.74
2018-02-27T07:15:13.850Z,1010.73
2018-02-27T07:16:23.564Z,1010.62
2018-02-27T07:17:33.016Z,1010.74
2018-02-27T07:18:42.734Z,1010.59
2018-02-27T07:19:52.715Z,1010.72
2018-02-27T07:21:02.434Z,1010.73
2018-02-27T07:22:12.153Z,1010.7
2018-02-27T07:23:21.875Z,1010.72
2018-02-27T07:24:31.861Z,1010.76
2018-02-27T07:25:41.843Z,1010.72
2018-02-27T07:26:51.838Z,1010.7
2018-02-27T07:28:01.558Z,1010.64
2018-02-27T07:29:11.544Z,1010.74
2018-02-27T07:30:21.258Z,1010.69
2018-02-27T07:31:30.978Z,1010.72
2018-02-27T07:32:41.068Z,1010.74
2018-02-27T07:33:51.059Z,1010.77
2018-02-27T07:35:01.036Z,1010.82
2018-02-27T07:36:11.027Z,1010.75
2018-02-27T07:37:21.013Z,1010.74
2018-02-27T07:38:30.732Z,1010.71
2018-02-27T07:39:40.715Z,1010.78
2018-02-27T07:40:50.702Z,1010.66
2018-02-27T07:42:00.159Z,1010.72
2018-02-27T07:43:09.899Z,1010.76
2018-02-27T07:44:19.612Z,1010.72
2018-02-27T07:45:29.340Z,1010.74
2018-02-27T07:46:38.789Z,1010.7
2018-02-27T07:47:48.771Z,1010.7
2018-02-27T07:48:58.755Z,1010.73
2018-02-27T07:50:08.742Z,1010.68
2018-02-27T07:51:18.735Z,1010.68
2018-02-27T07:52:28.190Z,1010.72
2018-02-27T07:53:38.133Z,1010.73
2018-02-27T07:54:47.856Z,1010.7
2018-02-27T07:55:57.575Z,1010.7
2018-02-27T07:57:07.563Z,1010.72
2018-02-27T07:58:17.554Z,1010.7
2018-02-27T07:59:27.274Z,1010.76
2018-02-27T08:00:36.996Z,1010.76
2018-02-27T08:01:46.980Z,1010.75
2018-02-27T08:02:56.964Z,1010.7
2018-02-27T08:04:06.459Z,1010.76
2018-02-27T08:05:16.456Z,1010.72
2018-02-27T08:06:26.442Z,1010.74
2018-02-27T08:07:36.427Z,1010.78
2018-02-27T08:08:46.152Z,1010.75
2018-02-27T08:09:55.878Z,1010.7
2018-02-27T08:11:05.656Z,1010.71
2018-02-27T08:12:15.381Z,1010.72
2018-02-27T08:13:25.372Z,1010.71
2018-02-27T08:14:35.094Z,1010.69
2018-02-27T08:15:45.079Z,1010.72
2018-02-27T08:16:55.071Z,1010.68
2018-02-27T08:18:04.797Z,1010.71
2018-02-27T08:19:14.785Z,1010.76
2018-02-27T08:20:24.792Z,1010.75
2018-02-27T08:21:34.925Z,1010.88
2018-02-27T08:22:44.643Z,1010.83
2018-02-27T08:23:54.626Z,1010.87
2018-02-27T08:25:04.443Z,1010.78
2018-02-27T08:26:14.161Z,1010.92
2018-02-27T08:27:23.616Z,1010.85
2018-02-27T08:28:33.621Z,1010.86
2018-02-27T08:29:43.720Z,1010.88
2018-02-27T08:30:53.719Z,1010.88
2018-02-27T08:32:03.765Z,1010.8
2018-02-27T08:33:13.490Z,1010.84
2018-02-27T08:34:23.474Z,1010.8
2018-02-27T08:35:32.927Z,1010.87
2018-02-27T08:36:42.650Z,1010.94
2018-02-27T08:37:52.366Z,1010.91
2018-02-27T08:39:01.842Z,1010.93
2018-02-27T08:40:11.564Z,1010.85
2018-02-27T08:41:21.292Z,1010.88
2018-02-27T08:42:31.010Z,1010.89
2018-02-27T08:43:40.996Z,1010.82
2018-02-27T08:44:51.013Z,1010.94
2018-02-27T08:46:00.734Z,1010.99
2018-02-27T08:47:10.462Z,1010.97
2018-02-27T08:48:19.918Z,1011.06
2018-02-27T08:49:29.907Z,1010.97
2018-02-27T08:50:39.900Z,1010.92
2018-02-27T08:51:49.888Z,1011.04
2018-02-27T08:52:59.608Z,1011.04
2018-02-27T08:54:09.593Z,1010.93
2018-02-27T08:55:19.317Z,1010.95
2018-02-27T08:56:29.336Z,1011.01
2018-02-27T08:57:38.789Z,1010.97
2018-02-27T08:58:48.781Z,1010.87
2018-02-27T08:59:58.769Z,1010.96
2018-02-27T09:01:08.223Z,1011
2018-02-27T09:02:17.944Z,1010.92
2018-02-27T09:03:27.938Z,1011.02
2018-02-27T09:04:37.392Z,1010.97
2018-02-27T09:05:47.386Z,1010.93
2018-02-27T09:06:57.107Z,1010.92
2018-02-27T09:08:07.102Z,1011
2018-02-27T09:09:17.192Z,1011.02
2018-02-27T09:10:26.918Z,1010.99
2018-02-27T09:11:36.904Z,1010.92
2018-02-27T09:12:46.896Z,1010.97
2018-02-27T09:13:56.889Z,1010.97
2018-02-27T09:15:06.877Z,1010.9
2018-02-27T09:16:16.671Z,1010.94
2018-02-27T09:17:26.684Z,1011.03
2018-02-27T09:18:36.679Z,1010.98
2018-02-27T09:19:46.135Z,1010.97
2018-02-27T09:20:55.324Z,1010.96
2018-02-27T09:22:04.507Z,1010.97
2018-02-27T09:23:14.500Z,1010.91
2018-02-27T09:24:24.494Z,1010.96
2018-02-27T09:25:34.545Z,1010.98
2018-02-27T09:26:44.327Z,1010.93
2018-02-27T09:27:54.051Z,1010.95
2018-02-27T09:29:04.075Z,1010.98
2018-02-27T09:30:14.065Z,1011
2018-02-27T09:31:23.783Z,1011.03
2018-02-27T09:32:33.498Z,1011.06
2018-02-27T09:33:43.218Z,1010.9
2018-02-27T09:34:53.306Z,1010.99
2018-02-27T09:36:03.132Z,1011.02
2018-02-27T09:37:12.318Z,1010.99
2018-02-27T09:38:22.379Z,1011.01
2018-02-27T09:39:32.476Z,1010.97
2018-02-27T09:40:42.511Z,1011
2018-02-27T09:41:51.985Z,1010.97
2018-02-27T09:43:01.443Z,1010.92
2018-02-27T09:44:11.162Z,1010.98
2018-02-27T09:45:21.149Z,1010.97
2018-02-27T09:46:31.149Z,1010.98
2018-02-27T09:47:40.600Z,1010.96
2018-02-27T09:48:50.604Z,1010.96
2018-02-27T09:50:00.588Z,1010.97
2018-02-27T09:51:10.314Z,1010.93
2018-02-27T09:52:20.036Z,1011.01
2018-02-27T09:53:29.487Z,1010.94
2018-02-27T09:54:39.484Z,1011.03
2018-02-27T09:55:49.207Z,1011.02
2018-02-27T09:56:59.200Z,1011.05
2018-02-27T09:58:09.190Z,1011.02
2018-02-27T09:59:19.199Z,1010.94
2018-02-27T10:00:28.916Z,1010.98
2018-02-27T10:01:38.919Z,1010.98
2018-02-27T10:02:48.665Z,1011.01
2018-02-27T10:03:58.393Z,1011
2018-02-27T10:05:08.124Z,1011
2018-02-27T10:06:18.166Z,1010.99
2018-02-27T10:07:27.841Z,1010.93
2018-02-27T10:08:37.839Z,1011.05
2018-02-27T10:09:47.559Z,1011.06
2018-02-27T10:10:57.308Z,1011.01
2018-02-27T10:12:07.072Z,1011.04
2018-02-27T10:13:17.061Z,1011.01
2018-02-27T10:14:26.796Z,1011
2018-02-27T10:15:36.794Z,1010.9
2018-02-27T10:16:46.513Z,1011.01
2018-02-27T10:17:56.526Z,1011
2018-02-27T10:19:06.248Z,1011
2018-02-27T10:20:15.708Z,1011.01
2018-02-27T10:21:25.695Z,1011.1
2018-02-27T10:22:35.686Z,1011.07
2018-02-27T10:23:45.146Z,1011.06
2018-02-27T10:24:55.145Z,1011.04
2018-02-27T10:26:04.868Z,1010.98
2018-02-27T10:27:14.687Z,1011.03
2018-02-27T10:28:24.412Z,1011.16
2018-02-27T10:29:34.134Z,1011.12
2018-02-27T10:30:44.133Z,1011.22
2018-02-27T10:31:54.310Z,1011.19
2018-02-27T10:33:04.032Z,1011.28
2018-02-27T10:34:13.763Z,1011.24
2018-02-27T10:35:23.493Z,1011.16
2018-02-27T10:36:33.538Z,1011.22
2018-02-27T10:37:43.530Z,1011.23
2018-02-27T10:38:52.991Z,1011.29
2018-02-27T10:40:02.983Z,1011.26
2018-02-27T10:41:12.448Z,1011.25
2018-02-27T10:42:22.442Z,1011.23
2018-02-27T10:43:32.437Z,1011.32
2018-02-27T10:44:42.417Z,1011.26
2018-02-27T10:45:52.407Z,1011.36
2018-02-27T10:47:02.136Z,1011.33
2018-02-27T10:48:11.868Z,1011.3
2018-02-27T10:49:21.871Z,1011.33
2018-02-27T10:50:31.961Z,1011.33
2018-02-27T10:51:41.950Z,1011.36
2018-02-27T10:52:51.679Z,1011.33
2018-02-27T10:54:01.398Z,1011.31
2018-02-27T10:55:10.857Z,1011.31
2018-02-27T10:56:20.577Z,1011.31
2018-02-27T10:57:30.303Z,1011.3
2018-02-27T10:58:40.292Z,1011.29
2018-02-27T10:59:50.013Z,1011.3
2018-02-27T11:00:59.729Z,1011.37
2018-02-27T11:02:09.450Z,1011.26
2018-02-27T11:03:19.437Z,1011.26
2018-02-27T11:04:29.427Z,1011.29
2018-02-27T11:05:39.150Z,1011.33
2018-02-27T11:06:48.882Z,1011.28
2018-02-27T11:07:58.435Z,1011.3
2018-02-27T11:09:08.159Z,1011.31
2018-02-27T11:10:17.652Z,1011.33
2018-02-27T11:11:27.374Z,1011.33
2018-02-27T11:12:37.366Z,1011.38
2018-02-27T11:13:47.372Z,1011.38
2018-02-27T11:14:56.836Z,1011.37
2018-02-27T11:16:06.025Z,1011.39
2018-02-27T11:17:16.075Z,1011.44
2018-02-27T11:18:26.067Z,1011.46
2018-02-27T11:19:36.050Z,1011.31
2018-02-27T11:20:46.040Z,1011.34
2018-02-27T11:21:56.030Z,1011.34
2018-02-27T11:23:06.019Z,1011.32
2018-02-27T11:24:16.013Z,1011.28
2018-02-27T11:25:25.743Z,1011.34
2018-02-27T11:26:35.465Z,1011.33
2018-02-27T11:27:45.453Z,1011.33
2018-02-27T11:28:55.173Z,1011.28
2018-02-27T11:30:04.901Z,1011.29
2018-02-27T11:31:14.363Z,1011.35
2018-02-27T11:32:24.090Z,1011.36
2018-02-27T11:33:33.819Z,1011.36
2018-02-27T11:34:43.546Z,1011.42
2018-02-27T11:35:53.541Z,1011.4
2018-02-27T11:37:03.271Z,1011.45
2018-02-27T11:38:13.259Z,1011.44
2018-02-27T11:39:22.997Z,1011.43
2018-02-27T11:40:32.718Z,1011.33
2018-02-27T11:41:42.705Z,1011.51
2018-02-27T11:42:52.211Z,1011.48
2018-02-27T11:44:02.248Z,1011.46
2018-02-27T11:45:12.243Z,1011.46
2018-02-27T11:46:22.234Z,1011.4
2018-02-27T11:47:32.232Z,1011.33
2018-02-27T11:48:41.686Z,1011.41
2018-02-27T11:49:51.135Z,1011.4
2018-02-27T11:51:00.870Z,1011.39
2018-02-27T11:52:10.329Z,1011.34
2018-02-27T11:53:20.054Z,1011.5
2018-02-27T11:54:30.053Z,1011.55
2018-02-27T11:55:40.044Z,1011.55
2018-02-27T11:56:50.048Z,1011.64
2018-02-27T11:58:00.037Z,1011.57
2018-02-27T11:59:10.026Z,1011.63
2018-02-27T12:00:20.366Z,1011.49
2018-02-27T12:01:30.092Z,1011.65
2018-02-27T12:02:40.176Z,1011.52
2018-02-27T12:03:50.179Z,1011.57
2018-02-27T12:04:59.906Z,1011.51
2018-02-27T12:06:09.637Z,1011.56
2018-02-27T12:07:19.630Z,1011.5
2018-02-27T12:08:29.649Z,1011.62
2018-02-27T12:09:39.663Z,1011.58
2018-02-27T12:10:49.657Z,1011.5
2018-02-27T12:11:59.652Z,1011.66
2018-02-27T12:13:09.640Z,1011.66
2018-02-27T12:14:19.367Z,1011.66
2018-02-27T12:15:29.360Z,1011.73
2018-02-27T12:16:39.089Z,1011.76
2018-02-27T12:17:48.548Z,1011.79
2018-02-27T12:18:58.024Z,1011.77
2018-02-27T12:20:07.747Z,1011.73
2018-02-27T12:21:17.480Z,1011.81
2018-02-27T12:22:27.213Z,1011.78
2018-02-27T12:23:36.938Z,1011.77
2018-02-27T12:24:46.930Z,1011.67
2018-02-27T12:25:56.922Z,1011.83
2018-02-27T12:27:06.394Z,1011.83
2018-02-27T12:28:16.394Z,1011.85
2018-02-27T12:29:26.395Z,1011.79
2018-02-27T12:30:35.914Z,1011.74
2018-02-27T12:31:45.656Z,1011.82
2018-02-27T12:32:55.388Z,1011.82
2018-02-27T12:34:04.855Z,1011.81
2018-02-27T12:35:14.855Z,1011.88
2018-02-27T12:36:24.590Z,1011.91
2018-02-27T12:37:34.606Z,1011.89
2018-02-27T12:38:44.604Z,1011.9
2018-02-27T12:39:54.333Z,1012
2018-02-27T12:41:04.065Z,1011.9
2018-02-27T12:42:13.805Z,1011.69
2018-02-27T12:43:23.819Z,1011.74
2018-02-27T12:44:33.823Z,1011.9
2018-02-27T12:45:44.362Z,1012.02
2018-02-27T12:46:54.196Z,1012.08
2018-02-27T12:48:04.257Z,1011.94
2018-02-27T12:49:14.269Z,1011.74
2018-02-27T12:50:23.480Z,1011.73
2018-02-27T12:51:33.477Z,1011.79
2018-02-27T12:52:43.502Z,1011.85
2018-02-27T12:53:53.399Z,1011.71
2018-02-27T12:55:03.136Z,1011.64
2018-02-27T12:56:13.139Z,1011.76
2018-02-27T12:57:22.876Z,1011.75
2018-02-27T12:58:32.931Z,1011.75
2018-02-27T12:59:42.923Z,1011.82
2018-02-27T13:00:52.923Z,1011.72
2018-02-27T13:02:02.659Z,1011.8
2018-02-27T13:03:12.672Z,1011.95
2018-02-27T13:04:22.395Z,1011.95
2018-02-27T13:05:31.589Z,1011.92
2018-02-27T13:06:41.584Z,1011.81
2018-02-27T13:07:51.313Z,1011.87
2018-02-27T13:09:01.310Z,1011.95
2018-02-27T13:10:10.819Z,1011.9
2018-02-27T13:11:20.825Z,1011.83
2018-02-27T13:12:30.820Z,1011.88
2018-02-27T13:13:40.816Z,1011.88
2018-02-27T13:14:50.275Z,1011.89
2018-02-27T13:16:00.000Z,1011.96
2018-02-27T13:17:09.995Z,1011.87
2018-02-27T13:18:19.984Z,1012.14
2018-02-27T13:19:29.707Z,1012.2
2018-02-27T13:20:39.200Z,1012.19
2018-02-27T13:21:49.187Z,1012.12
2018-02-27T13:22:58.650Z,1011.98
2018-02-27T13:24:08.638Z,1012.01
2018-02-27T13:25:18.367Z,1011.92
2018-02-27T13:26:28.226Z,1012
2018-02-27T13:27:37.845Z,1011.9
2018-02-27T13:28:47.566Z,1011.85
2018-02-27T13:29:57.566Z,1011.93
2018-02-27T13:31:07.565Z,1011.94
2018-02-27T13:32:16.756Z,1011.94
2018-02-27T13:33:26.749Z,1011.86
2018-02-27T13:34:36.735Z,1012.06
2018-02-27T13:35:46.734Z,1012
2018-02-27T13:36:56.723Z,1012.02
2018-02-27T13:38:06.713Z,1012.02
2018-02-27T13:39:16.439Z,1012.07
2018-02-27T13:40:26.428Z,1011.89
2018-02-27T13:41:36.419Z,1011.88
2018-02-27T13:42:46.146Z,1011.83
2018-02-27T13:43:56.271Z,1011.96
2018-02-27T13:45:06.377Z,1011.98
2018-02-27T13:46:15.851Z,1011.98
2018-02-27T13:47:25.574Z,1011.99
2018-02-27T13:48:45.757Z,1011.97
2018-02-27T13:49:56.084Z,1011.99
2018-02-27T13:51:05.543Z,1012.01
2018-02-27T13:52:15.320Z,1011.95
2018-02-27T13:53:25.701Z,1011.96
2018-02-27T13:54:35.690Z,1012.04
2018-02-27T13:55:45.693Z,1011.94
2018-02-27T13:56:55.418Z,1012
2018-02-27T13:58:05.154Z,1012.01
2018-02-27T13:59:15.157Z,1012.09
2018-02-27T14:00:25.160Z,1012.06
2018-02-27T14:01:34.884Z,1011.97
2018-02-27T14:02:44.885Z,1012.02
2018-02-27T14:03:54.885Z,1012.05
2018-02-27T14:05:04.875Z,1012.07
2018-02-27T14:06:14.865Z,1012.13
2018-02-27T14:07:24.855Z,1012.08
2018-02-27T14:08:34.312Z,1012.01
2018-02-27T14:09:44.046Z,1012.13
2018-02-27T14:10:53.772Z,1012.15
2018-02-27T14:12:03.772Z,1012.26
2018-02-27T14:13:13.762Z,1012.13